sensor_id;sensor_type;location;lat;lon;timestamp;P1;durP1;ratioP1;P2;durP2;ratioP2
31692;SDS011;37436;53.230;6.614;2023-07-31T00:01:45;6.07;;;3.95;;
31692;SDS011;37436;53.230;6.614;2023-07-31T00:04:15;6.68;;;3.58;;
31692;SDS011;37436;53.230;6.614;2023-07-31T00:06:41;6.03;;;3.40;;
31692;SDS011;37436;53.230;6.614;2023-07-31T00:09:10;6.15;;;4.20;;
31692;SDS011;37436;53.230;6.614;2023-07-31T00:11:36;6.45;;;3.40;;
31692;SDS011;37436;53.230;6.614;2023-07-31T00:14:02;5.78;;;3.80;;
31692;SDS011;37436;53.230;6.614;2023-07-31T00:16:29;9.80;;;3.92;;
31692;SDS011;37436;53.230;6.614;2023-07-31T00:18:56;8.02;;;4.10;;
31692;SDS011;37436;53.230;6.614;2023-07-31T00:21:23;8.82;;;3.25;;
31692;SDS011;37436;53.230;6.614;2023-07-31T00:23:50;7.63;;;3.40;;
31692;SDS011;37436;53.230;6.614;2023-07-31T00:26:16;6.53;;;3.10;;
31692;SDS011;37436;53.230;6.614;2023-07-31T00:28:51;4.97;;;3.08;;
31692;SDS011;37436;53.230;6.614;2023-07-31T00:31:20;9.85;;;3.33;;
31692;SDS011;37436;53.230;6.614;2023-07-31T00:33:46;4.93;;;2.53;;
31692;SDS011;37436;53.230;6.614;2023-07-31T00:36:14;8.52;;;2.92;;
31692;SDS011;37436;53.230;6.614;2023-07-31T00:38:44;4.38;;;2.80;;
31692;SDS011;37436;53.230;6.614;2023-07-31T00:41:30;4.63;;;2.30;;
31692;SDS011;37436;53.230;6.614;2023-07-31T00:43:56;5.53;;;2.53;;
31692;SDS011;37436;53.230;6.614;2023-07-31T00:46:23;8.13;;;2.90;;
31692;SDS011;37436;53.230;6.614;2023-07-31T00:48:49;3.58;;;2.40;;
31692;SDS011;37436;53.230;6.614;2023-07-31T00:51:15;4.78;;;2.78;;
31692;SDS011;37436;53.230;6.614;2023-07-31T00:53:41;6.15;;;3.15;;
31692;SDS011;37436;53.230;6.614;2023-07-31T00:56:08;5.50;;;3.35;;
31692;SDS011;37436;53.230;6.614;2023-07-31T00:58:38;5.90;;;3.47;;
31692;SDS011;37436;53.230;6.614;2023-07-31T01:01:10;3.45;;;2.35;;
31692;SDS011;37436;53.230;6.614;2023-07-31T01:03:39;7.18;;;3.17;;
31692;SDS011;37436;53.230;6.614;2023-07-31T01:06:14;5.85;;;2.33;;
31692;SDS011;37436;53.230;6.614;2023-07-31T01:08:43;8.02;;;2.80;;
31692;SDS011;37436;53.230;6.614;2023-07-31T01:13:59;6.88;;;2.70;;
31692;SDS011;37436;53.230;6.614;2023-07-31T01:16:36;4.20;;;2.42;;
31692;SDS011;37436;53.230;6.614;2023-07-31T01:19:03;4.88;;;2.10;;
31692;SDS011;37436;53.230;6.614;2023-07-31T01:26:28;5.60;;;2.10;;
31692;SDS011;37436;53.230;6.614;2023-07-31T01:29:19;3.80;;;2.22;;
31692;SDS011;37436;53.230;6.614;2023-07-31T01:31:51;8.85;;;2.22;;
31692;SDS011;37436;53.230;6.614;2023-07-31T01:34:19;4.78;;;2.45;;
31692;SDS011;37436;53.230;6.614;2023-07-31T01:36:47;3.83;;;2.35;;
31692;SDS011;37436;53.230;6.614;2023-07-31T01:39:46;5.22;;;2.55;;
31692;SDS011;37436;53.230;6.614;2023-07-31T01:42:12;7.28;;;2.30;;
31692;SDS011;37436;53.230;6.614;2023-07-31T01:44:39;4.57;;;2.45;;
31692;SDS011;37436;53.230;6.614;2023-07-31T01:47:05;4.75;;;3.05;;
31692;SDS011;37436;53.230;6.614;2023-07-31T01:49:35;4.72;;;2.97;;
31692;SDS011;37436;53.230;6.614;2023-07-31T01:52:06;3.42;;;2.42;;
31692;SDS011;37436;53.230;6.614;2023-07-31T01:54:33;2.58;;;1.83;;
31692;SDS011;37436;53.230;6.614;2023-07-31T01:56:59;4.43;;;2.92;;
31692;SDS011;37436;53.230;6.614;2023-07-31T01:59:25;9.23;;;2.30;;
31692;SDS011;37436;53.230;6.614;2023-07-31T02:01:57;3.50;;;2.00;;
31692;SDS011;37436;53.230;6.614;2023-07-31T02:04:23;9.25;;;2.30;;
31692;SDS011;37436;53.230;6.614;2023-07-31T02:06:49;3.55;;;1.85;;
31692;SDS011;37436;53.230;6.614;2023-07-31T02:09:17;5.90;;;1.98;;
31692;SDS011;37436;53.230;6.614;2023-07-31T02:11:43;2.72;;;1.90;;
31692;SDS011;37436;53.230;6.614;2023-07-31T02:14:09;3.42;;;1.90;;
31692;SDS011;37436;53.230;6.614;2023-07-31T02:16:37;2.97;;;2.15;;
31692;SDS011;37436;53.230;6.614;2023-07-31T02:19:10;5.13;;;1.85;;
31692;SDS011;37436;53.230;6.614;2023-07-31T02:21:36;2.45;;;1.45;;
31692;SDS011;37436;53.230;6.614;2023-07-31T02:24:02;6.28;;;1.85;;
31692;SDS011;37436;53.230;6.614;2023-07-31T02:26:28;2.95;;;1.52;;
31692;SDS011;37436;53.230;6.614;2023-07-31T02:28:54;2.78;;;1.88;;
31692;SDS011;37436;53.230;6.614;2023-07-31T02:31:20;6.05;;;1.40;;
31692;SDS011;37436;53.230;6.614;2023-07-31T02:33:47;8.02;;;1.40;;
31692;SDS011;37436;53.230;6.614;2023-07-31T02:36:16;3.22;;;1.65;;
31692;SDS011;37436;53.230;6.614;2023-07-31T02:38:42;1.30;;;1.20;;
31692;SDS011;37436;53.230;6.614;2023-07-31T02:41:08;2.38;;;1.40;;
31692;SDS011;37436;53.230;6.614;2023-07-31T02:43:34;2.92;;;2.00;;
31692;SDS011;37436;53.230;6.614;2023-07-31T02:46:00;4.15;;;1.60;;
31692;SDS011;37436;53.230;6.614;2023-07-31T02:48:27;3.58;;;1.60;;
31692;SDS011;37436;53.230;6.614;2023-07-31T02:50:56;5.25;;;1.70;;
31692;SDS011;37436;53.230;6.614;2023-07-31T02:53:22;2.17;;;1.42;;
31692;SDS011;37436;53.230;6.614;2023-07-31T02:55:48;2.40;;;1.60;;
31692;SDS011;37436;53.230;6.614;2023-07-31T02:58:14;2.25;;;1.52;;
31692;SDS011;37436;53.230;6.614;2023-07-31T03:00:44;9.23;;;1.55;;
31692;SDS011;37436;53.230;6.614;2023-07-31T03:03:11;7.60;;;1.67;;
31692;SDS011;37436;53.230;6.614;2023-07-31T03:05:40;3.10;;;1.48;;
31692;SDS011;37436;53.230;6.614;2023-07-31T03:08:06;3.10;;;1.33;;
31692;SDS011;37436;53.230;6.614;2023-07-31T03:10:33;4.10;;;1.80;;
31692;SDS011;37436;53.230;6.614;2023-07-31T03:12:59;4.82;;;1.75;;
31692;SDS011;37436;53.230;6.614;2023-07-31T03:15:25;2.45;;;1.30;;
31692;SDS011;37436;53.230;6.614;2023-07-31T03:17:57;5.47;;;1.67;;
31692;SDS011;37436;53.230;6.614;2023-07-31T03:20:30;4.78;;;1.70;;
31692;SDS011;37436;53.230;6.614;2023-07-31T03:22:59;2.13;;;1.48;;
31692;SDS011;37436;53.230;6.614;2023-07-31T03:25:25;2.45;;;1.35;;
31692;SDS011;37436;53.230;6.614;2023-07-31T03:27:54;2.28;;;1.60;;
31692;SDS011;37436;53.230;6.614;2023-07-31T03:30:41;5.18;;;1.33;;
31692;SDS011;37436;53.230;6.614;2023-07-31T03:33:10;3.83;;;1.17;;
31692;SDS011;37436;53.230;6.614;2023-07-31T03:35:36;2.80;;;1.13;;
31692;SDS011;37436;53.230;6.614;2023-07-31T03:38:03;3.53;;;1.35;;
31692;SDS011;37436;53.230;6.614;2023-07-31T03:40:32;4.05;;;1.42;;
31692;SDS011;37436;53.230;6.614;2023-07-31T03:43:01;2.00;;;0.90;;
31692;SDS011;37436;53.230;6.614;2023-07-31T03:45:30;6.00;;;1.50;;
31692;SDS011;37436;53.230;6.614;2023-07-31T03:47:56;2.25;;;1.23;;
31692;SDS011;37436;53.230;6.614;2023-07-31T03:50:25;5.15;;;1.13;;
31692;SDS011;37436;53.230;6.614;2023-07-31T03:52:51;7.20;;;1.17;;
31692;SDS011;37436;53.230;6.614;2023-07-31T03:55:22;7.72;;;1.27;;
31692;SDS011;37436;53.230;6.614;2023-07-31T03:57:51;4.97;;;1.38;;
31692;SDS011;37436;53.230;6.614;2023-07-31T04:00:18;4.70;;;1.20;;
31692;SDS011;37436;53.230;6.614;2023-07-31T04:02:44;6.35;;;1.30;;
31692;SDS011;37436;53.230;6.614;2023-07-31T04:05:10;6.63;;;1.40;;
31692;SDS011;37436;53.230;6.614;2023-07-31T04:07:48;5.18;;;1.33;;
31692;SDS011;37436;53.230;6.614;2023-07-31T04:10:14;5.18;;;1.50;;
31692;SDS011;37436;53.230;6.614;2023-07-31T04:12:40;3.90;;;1.50;;
31692;SDS011;37436;53.230;6.614;2023-07-31T04:15:07;4.15;;;1.25;;
31692;SDS011;37436;53.230;6.614;2023-07-31T04:17:33;4.18;;;1.30;;
31692;SDS011;37436;53.230;6.614;2023-07-31T04:20:00;5.03;;;1.45;;
31692;SDS011;37436;53.230;6.614;2023-07-31T04:22:29;1.20;;;0.82;;
31692;SDS011;37436;53.230;6.614;2023-07-31T04:24:55;2.88;;;1.30;;
31692;SDS011;37436;53.230;6.614;2023-07-31T04:27:33;4.68;;;1.50;;
31692;SDS011;37436;53.230;6.614;2023-07-31T04:30:00;5.35;;;1.25;;
31692;SDS011;37436;53.230;6.614;2023-07-31T04:32:26;8.32;;;1.25;;
31692;SDS011;37436;53.230;6.614;2023-07-31T04:35:00;3.97;;;0.90;;
31692;SDS011;37436;53.230;6.614;2023-07-31T04:37:26;3.75;;;1.25;;
31692;SDS011;37436;53.230;6.614;2023-07-31T04:39:52;2.00;;;1.30;;
31692;SDS011;37436;53.230;6.614;2023-07-31T04:42:18;4.05;;;1.38;;
31692;SDS011;37436;53.230;6.614;2023-07-31T04:44:50;4.03;;;1.50;;
31692;SDS011;37436;53.230;6.614;2023-07-31T04:47:18;1.95;;;1.15;;
31692;SDS011;37436;53.230;6.614;2023-07-31T04:49:44;6.00;;;1.00;;
31692;SDS011;37436;53.230;6.614;2023-07-31T04:52:24;1.77;;;1.02;;
31692;SDS011;37436;53.230;6.614;2023-07-31T04:54:50;4.00;;;1.00;;
31692;SDS011;37436;53.230;6.614;2023-07-31T04:57:16;4.75;;;1.17;;
31692;SDS011;37436;53.230;6.614;2023-07-31T04:59:43;5.47;;;1.25;;
31692;SDS011;37436;53.230;6.614;2023-07-31T05:02:09;1.63;;;1.00;;
31692;SDS011;37436;53.230;6.614;2023-07-31T05:04:35;1.42;;;0.80;;
31692;SDS011;37436;53.230;6.614;2023-07-31T05:07:01;2.08;;;1.00;;
31692;SDS011;37436;53.230;6.614;2023-07-31T05:09:27;5.20;;;1.00;;
31692;SDS011;37436;53.230;6.614;2023-07-31T05:11:53;5.55;;;1.10;;
31692;SDS011;37436;53.230;6.614;2023-07-31T05:14:19;6.38;;;1.08;;
31692;SDS011;37436;53.230;6.614;2023-07-31T05:16:46;2.58;;;0.95;;
31692;SDS011;37436;53.230;6.614;2023-07-31T05:19:12;2.92;;;0.93;;
31692;SDS011;37436;53.230;6.614;2023-07-31T05:21:39;0.65;;;0.60;;
31692;SDS011;37436;53.230;6.614;2023-07-31T05:24:14;4.07;;;0.93;;
31692;SDS011;37436;53.230;6.614;2023-07-31T05:26:41;4.30;;;1.13;;
31692;SDS011;37436;53.230;6.614;2023-07-31T05:29:25;1.35;;;0.93;;
31692;SDS011;37436;53.230;6.614;2023-07-31T05:31:51;1.35;;;0.70;;
31692;SDS011;37436;53.230;6.614;2023-07-31T05:37:23;1.38;;;0.60;;
31692;SDS011;37436;53.230;6.614;2023-07-31T05:40:06;0.57;;;0.40;;
31692;SDS011;37436;53.230;6.614;2023-07-31T05:42:34;4.63;;;0.60;;
31692;SDS011;37436;53.230;6.614;2023-07-31T05:48:00;1.27;;;0.80;;
31692;SDS011;37436;53.230;6.614;2023-07-31T05:50:27;1.30;;;0.68;;
31692;SDS011;37436;53.230;6.614;2023-07-31T05:55:33;1.02;;;0.70;;
31692;SDS011;37436;53.230;6.614;2023-07-31T05:58:01;1.52;;;0.80;;
31692;SDS011;37436;53.230;6.614;2023-07-31T06:00:27;2.13;;;0.80;;
31692;SDS011;37436;53.230;6.614;2023-07-31T06:02:53;2.30;;;0.80;;
31692;SDS011;37436;53.230;6.614;2023-07-31T06:05:20;2.80;;;0.73;;
31692;SDS011;37436;53.230;6.614;2023-07-31T06:07:49;2.08;;;0.73;;
31692;SDS011;37436;53.230;6.614;2023-07-31T06:10:15;2.85;;;0.90;;
31692;SDS011;37436;53.230;6.614;2023-07-31T06:12:41;2.67;;;1.20;;
31692;SDS011;37436;53.230;6.614;2023-07-31T06:15:07;3.08;;;0.85;;
31692;SDS011;37436;53.230;6.614;2023-07-31T06:17:37;2.30;;;1.10;;
31692;SDS011;37436;53.230;6.614;2023-07-31T06:20:03;5.30;;;1.60;;
31692;SDS011;37436;53.230;6.614;2023-07-31T06:22:32;4.82;;;1.70;;
31692;SDS011;37436;53.230;6.614;2023-07-31T06:24:59;3.72;;;1.40;;
31692;SDS011;37436;53.230;6.614;2023-07-31T06:27:25;5.00;;;1.90;;
31692;SDS011;37436;53.230;6.614;2023-07-31T06:29:57;6.32;;;1.90;;
31692;SDS011;37436;53.230;6.614;2023-07-31T06:32:25;7.60;;;2.83;;
31692;SDS011;37436;53.230;6.614;2023-07-31T06:34:51;4.88;;;1.70;;
31692;SDS011;37436;53.230;6.614;2023-07-31T06:37:17;6.50;;;1.92;;
31692;SDS011;37436;53.230;6.614;2023-07-31T06:39:43;18.48;;;3.40;;
31692;SDS011;37436;53.230;6.614;2023-07-31T06:42:19;16.52;;;3.40;;
31692;SDS011;37436;53.230;6.614;2023-07-31T06:44:45;15.15;;;3.55;;
31692;SDS011;37436;53.230;6.614;2023-07-31T06:47:11;12.75;;;3.65;;
31692;SDS011;37436;53.230;6.614;2023-07-31T06:49:49;10.65;;;3.72;;
31692;SDS011;37436;53.230;6.614;2023-07-31T06:52:15;22.48;;;4.65;;
31692;SDS011;37436;53.230;6.614;2023-07-31T06:54:59;19.48;;;4.45;;
31692;SDS011;37436;53.230;6.614;2023-07-31T06:57:34;17.98;;;4.75;;
31692;SDS011;37436;53.230;6.614;2023-07-31T07:00:05;22.25;;;4.78;;
31692;SDS011;37436;53.230;6.614;2023-07-31T07:02:36;27.02;;;5.93;;
31692;SDS011;37436;53.230;6.614;2023-07-31T07:05:02;28.27;;;5.65;;
31692;SDS011;37436;53.230;6.614;2023-07-31T07:07:32;14.07;;;5.10;;
31692;SDS011;37436;53.230;6.614;2023-07-31T07:10:02;28.77;;;5.63;;
31692;SDS011;37436;53.230;6.614;2023-07-31T07:12:35;25.02;;;4.75;;
31692;SDS011;37436;53.230;6.614;2023-07-31T07:15:02;24.02;;;5.35;;
31692;SDS011;37436;53.230;6.614;2023-07-31T07:17:31;17.52;;;4.28;;
31692;SDS011;37436;53.230;6.614;2023-07-31T07:20:00;21.48;;;5.18;;
31692;SDS011;37436;53.230;6.614;2023-07-31T07:23:01;20.73;;;4.40;;
31692;SDS011;37436;53.230;6.614;2023-07-31T07:25:23;29.35;;;6.32;;
31692;SDS011;37436;53.230;6.614;2023-07-31T07:27:50;33.15;;;5.53;;
31692;SDS011;37436;53.230;6.614;2023-07-31T07:30:16;26.85;;;5.28;;
31692;SDS011;37436;53.230;6.614;2023-07-31T07:32:42;41.53;;;6.25;;
31692;SDS011;37436;53.230;6.614;2023-07-31T07:35:09;35.03;;;6.90;;
31692;SDS011;37436;53.230;6.614;2023-07-31T07:37:35;24.95;;;7.18;;
31692;SDS011;37436;53.230;6.614;2023-07-31T07:40:01;23.33;;;6.25;;
31692;SDS011;37436;53.230;6.614;2023-07-31T07:42:35;30.88;;;7.20;;
31692;SDS011;37436;53.230;6.614;2023-07-31T07:45:08;25.90;;;6.47;;
31692;SDS011;37436;53.230;6.614;2023-07-31T07:47:34;27.05;;;5.53;;
31692;SDS011;37436;53.230;6.614;2023-07-31T07:50:03;11.77;;;4.00;;
31692;SDS011;37436;53.230;6.614;2023-07-31T07:52:39;25.73;;;5.32;;
31692;SDS011;37436;53.230;6.614;2023-07-31T07:55:07;15.25;;;4.50;;
31692;SDS011;37436;53.230;6.614;2023-07-31T07:57:33;15.57;;;4.15;;
31692;SDS011;37436;53.230;6.614;2023-07-31T08:00:00;2.15;;;1.38;;
31692;SDS011;37436;53.230;6.614;2023-07-31T08:02:36;3.30;;;1.63;;
31692;SDS011;37436;53.230;6.614;2023-07-31T08:05:02;4.05;;;1.40;;
31692;SDS011;37436;53.230;6.614;2023-07-31T08:07:34;6.82;;;1.77;;
31692;SDS011;37436;53.230;6.614;2023-07-31T08:10:22;3.55;;;1.60;;
31692;SDS011;37436;53.230;6.614;2023-07-31T08:13:02;2.97;;;1.25;;
31692;SDS011;37436;53.230;6.614;2023-07-31T08:15:31;3.53;;;1.48;;
31692;SDS011;37436;53.230;6.614;2023-07-31T08:17:57;4.07;;;1.10;;
31692;SDS011;37436;53.230;6.614;2023-07-31T08:20:31;4.55;;;1.40;;
31692;SDS011;37436;53.230;6.614;2023-07-31T08:22:57;1.85;;;1.17;;
31692;SDS011;37436;53.230;6.614;2023-07-31T08:25:24;2.40;;;1.13;;
31692;SDS011;37436;53.230;6.614;2023-07-31T08:30:46;4.95;;;1.73;;
31692;SDS011;37436;53.230;6.614;2023-07-31T08:33:22;4.82;;;1.10;;
31692;SDS011;37436;53.230;6.614;2023-07-31T08:35:48;1.20;;;0.63;;
31692;SDS011;37436;53.230;6.614;2023-07-31T08:38:17;7.75;;;2.38;;
31692;SDS011;37436;53.230;6.614;2023-07-31T08:40:44;4.45;;;1.30;;
31692;SDS011;37436;53.230;6.614;2023-07-31T08:43:10;8.48;;;1.33;;
31692;SDS011;37436;53.230;6.614;2023-07-31T08:45:36;3.97;;;1.05;;
31692;SDS011;37436;53.230;6.614;2023-07-31T08:48:04;2.88;;;1.38;;
31692;SDS011;37436;53.230;6.614;2023-07-31T08:50:35;3.38;;;1.38;;
31692;SDS011;37436;53.230;6.614;2023-07-31T08:53:08;2.08;;;1.40;;
31692;SDS011;37436;53.230;6.614;2023-07-31T08:55:35;2.47;;;1.00;;
31692;SDS011;37436;53.230;6.614;2023-07-31T08:58:03;2.78;;;1.17;;
31692;SDS011;37436;53.230;6.614;2023-07-31T09:00:33;1.25;;;0.90;;
31692;SDS011;37436;53.230;6.614;2023-07-31T09:03:02;3.15;;;1.73;;
31692;SDS011;37436;53.230;6.614;2023-07-31T09:05:29;1.45;;;1.27;;
31692;SDS011;37436;53.230;6.614;2023-07-31T09:07:59;2.85;;;1.30;;
31692;SDS011;37436;53.230;6.614;2023-07-31T09:10:27;2.13;;;1.20;;
31692;SDS011;37436;53.230;6.614;2023-07-31T09:12:53;1.27;;;0.88;;
31692;SDS011;37436;53.230;6.614;2023-07-31T09:15:20;1.77;;;1.10;;
31692;SDS011;37436;53.230;6.614;2023-07-31T09:17:47;0.88;;;0.70;;
31692;SDS011;37436;53.230;6.614;2023-07-31T09:20:20;1.60;;;0.55;;
31692;SDS011;37436;53.230;6.614;2023-07-31T09:22:47;2.17;;;0.73;;
31692;SDS011;37436;53.230;6.614;2023-07-31T09:25:18;2.05;;;0.90;;
31692;SDS011;37436;53.230;6.614;2023-07-31T09:27:59;2.33;;;1.35;;
31692;SDS011;37436;53.230;6.614;2023-07-31T09:30:25;1.98;;;0.88;;
31692;SDS011;37436;53.230;6.614;2023-07-31T09:32:59;3.35;;;0.93;;
31692;SDS011;37436;53.230;6.614;2023-07-31T09:35:35;1.50;;;0.90;;
31692;SDS011;37436;53.230;6.614;2023-07-31T09:38:06;2.50;;;0.98;;
31692;SDS011;37436;53.230;6.614;2023-07-31T09:40:33;3.13;;;0.82;;
31692;SDS011;37436;53.230;6.614;2023-07-31T09:43:01;2.33;;;0.82;;
31692;SDS011;37436;53.230;6.614;2023-07-31T09:45:28;3.00;;;0.60;;
31692;SDS011;37436;53.230;6.614;2023-07-31T09:47:55;1.75;;;1.05;;
31692;SDS011;37436;53.230;6.614;2023-07-31T09:50:22;1.58;;;0.80;;
31692;SDS011;37436;53.230;6.614;2023-07-31T09:52:48;1.35;;;0.70;;
31692;SDS011;37436;53.230;6.614;2023-07-31T09:55:15;5.22;;;0.85;;
31692;SDS011;37436;53.230;6.614;2023-07-31T09:57:45;4.43;;;0.93;;
31692;SDS011;37436;53.230;6.614;2023-07-31T10:00:12;2.08;;;0.68;;
31692;SDS011;37436;53.230;6.614;2023-07-31T10:02:44;2.10;;;0.80;;
31692;SDS011;37436;53.230;6.614;2023-07-31T10:05:12;1.20;;;0.60;;
31692;SDS011;37436;53.230;6.614;2023-07-31T10:07:40;0.20;;;0.20;;
31692;SDS011;37436;53.230;6.614;2023-07-31T10:10:13;0.40;;;0.35;;
31692;SDS011;37436;53.230;6.614;2023-07-31T10:12:41;0.50;;;0.40;;
31692;SDS011;37436;53.230;6.614;2023-07-31T10:15:08;1.40;;;0.45;;
31692;SDS011;37436;53.230;6.614;2023-07-31T10:17:34;0.20;;;0.20;;
31692;SDS011;37436;53.230;6.614;2023-07-31T10:20:03;0.20;;;0.20;;
31692;SDS011;37436;53.230;6.614;2023-07-31T10:22:31;0.50;;;0.35;;
31692;SDS011;37436;53.230;6.614;2023-07-31T10:24:57;1.98;;;0.38;;
31692;SDS011;37436;53.230;6.614;2023-07-31T10:27:26;1.05;;;0.40;;
31692;SDS011;37436;53.230;6.614;2023-07-31T10:30:00;0.57;;;0.38;;
31692;SDS011;37436;53.230;6.614;2023-07-31T10:32:31;2.80;;;0.20;;
31692;SDS011;37436;53.230;6.614;2023-07-31T10:34:58;0.50;;;0.15;;
31692;SDS011;37436;53.230;6.614;2023-07-31T10:37:32;0.40;;;0.20;;
31692;SDS011;37436;53.230;6.614;2023-07-31T10:40:03;4.38;;;0.40;;
31692;SDS011;37436;53.230;6.614;2023-07-31T10:42:45;13.18;;;0.52;;
31692;SDS011;37436;53.230;6.614;2023-07-31T10:45:36;0.20;;;0.20;;
31692;SDS011;37436;53.230;6.614;2023-07-31T10:48:05;1.45;;;0.40;;
31692;SDS011;37436;53.230;6.614;2023-07-31T10:50:40;3.85;;;0.60;;
31692;SDS011;37436;53.230;6.614;2023-07-31T10:53:52;0.73;;;0.47;;
31692;SDS011;37436;53.230;6.614;2023-07-31T10:56:13;2.60;;;0.32;;
31692;SDS011;37436;53.230;6.614;2023-07-31T10:58:44;0.90;;;0.43;;
31692;SDS011;37436;53.230;6.614;2023-07-31T11:01:13;3.05;;;0.30;;
31692;SDS011;37436;53.230;6.614;2023-07-31T11:03:49;0.30;;;0.30;;
31692;SDS011;37436;53.230;6.614;2023-07-31T11:06:19;0.95;;;0.43;;
31692;SDS011;37436;53.230;6.614;2023-07-31T11:09:03;1.90;;;0.30;;
31692;SDS011;37436;53.230;6.614;2023-07-31T11:11:34;2.50;;;0.77;;
31692;SDS011;37436;53.230;6.614;2023-07-31T11:14:00;2.72;;;0.50;;
31692;SDS011;37436;53.230;6.614;2023-07-31T11:16:26;3.50;;;0.90;;
31692;SDS011;37436;53.230;6.614;2023-07-31T11:18:53;0.70;;;0.60;;
31692;SDS011;37436;53.230;6.614;2023-07-31T11:21:21;1.63;;;1.20;;
31692;SDS011;37436;53.230;6.614;2023-07-31T11:23:51;2.03;;;1.02;;
31692;SDS011;37436;53.230;6.614;2023-07-31T11:26:18;4.68;;;1.10;;
31692;SDS011;37436;53.230;6.614;2023-07-31T11:32:41;6.07;;;1.40;;
31692;SDS011;37436;53.230;6.614;2023-07-31T11:35:12;1.05;;;0.80;;
31692;SDS011;37436;53.230;6.614;2023-07-31T11:37:42;2.65;;;1.00;;
31692;SDS011;37436;53.230;6.614;2023-07-31T11:40:09;1.23;;;0.57;;
31692;SDS011;37436;53.230;6.614;2023-07-31T11:42:39;4.68;;;1.13;;
31692;SDS011;37436;53.230;6.614;2023-07-31T11:45:08;1.77;;;0.98;;
31692;SDS011;37436;53.230;6.614;2023-07-31T11:47:35;6.65;;;1.40;;
31692;SDS011;37436;53.230;6.614;2023-07-31T11:50:05;2.63;;;1.05;;
31692;SDS011;37436;53.230;6.614;2023-07-31T11:52:48;5.28;;;0.90;;
31692;SDS011;37436;53.230;6.614;2023-07-31T11:55:18;5.20;;;0.90;;
31692;SDS011;37436;53.230;6.614;2023-07-31T11:57:45;1.73;;;0.70;;
31692;SDS011;37436;53.230;6.614;2023-07-31T12:00:13;1.17;;;0.80;;
31692;SDS011;37436;53.230;6.614;2023-07-31T12:02:39;1.70;;;1.00;;
31692;SDS011;37436;53.230;6.614;2023-07-31T12:05:17;2.72;;;1.08;;
31692;SDS011;37436;53.230;6.614;2023-07-31T12:08:01;1.63;;;0.95;;
31692;SDS011;37436;53.230;6.614;2023-07-31T12:10:34;1.05;;;1.00;;
31692;SDS011;37436;53.230;6.614;2023-07-31T12:13:03;2.08;;;1.00;;
31692;SDS011;37436;53.230;6.614;2023-07-31T12:15:40;3.25;;;1.20;;
31692;SDS011;37436;53.230;6.614;2023-07-31T12:18:07;1.83;;;1.00;;
31692;SDS011;37436;53.230;6.614;2023-07-31T12:20:34;6.18;;;1.42;;
31692;SDS011;37436;53.230;6.614;2023-07-31T12:23:00;4.28;;;1.50;;
31692;SDS011;37436;53.230;6.614;2023-07-31T12:25:30;1.75;;;1.00;;
31692;SDS011;37436;53.230;6.614;2023-07-31T12:28:11;4.85;;;1.48;;
31692;SDS011;37436;53.230;6.614;2023-07-31T12:30:39;1.67;;;1.35;;
31692;SDS011;37436;53.230;6.614;2023-07-31T12:33:15;2.25;;;1.10;;
31692;SDS011;37436;53.230;6.614;2023-07-31T12:35:43;4.32;;;1.55;;
31692;SDS011;37436;53.230;6.614;2023-07-31T12:38:13;5.07;;;1.85;;
31692;SDS011;37436;53.230;6.614;2023-07-31T12:40:42;2.53;;;1.50;;
31692;SDS011;37436;53.230;6.614;2023-07-31T12:43:08;6.57;;;1.70;;
31692;SDS011;37436;53.230;6.614;2023-07-31T12:45:35;10.63;;;1.60;;
31692;SDS011;37436;53.230;6.614;2023-07-31T12:48:07;7.72;;;1.88;;
31692;SDS011;37436;53.230;6.614;2023-07-31T12:50:33;2.92;;;1.52;;
31692;SDS011;37436;53.230;6.614;2023-07-31T12:53:05;4.53;;;1.42;;
31692;SDS011;37436;53.230;6.614;2023-07-31T12:55:41;2.88;;;1.58;;
31692;SDS011;37436;53.230;6.614;2023-07-31T12:58:07;1.92;;;1.10;;
31692;SDS011;37436;53.230;6.614;2023-07-31T13:00:33;2.20;;;1.20;;
31692;SDS011;37436;53.230;6.614;2023-07-31T13:03:00;7.18;;;1.60;;
31692;SDS011;37436;53.230;6.614;2023-07-31T13:05:27;6.57;;;1.58;;
31692;SDS011;37436;53.230;6.614;2023-07-31T13:07:54;4.10;;;1.55;;
31692;SDS011;37436;53.230;6.614;2023-07-31T13:10:22;6.15;;;1.80;;
31692;SDS011;37436;53.230;6.614;2023-07-31T13:12:50;7.47;;;2.10;;
31692;SDS011;37436;53.230;6.614;2023-07-31T13:15:17;7.03;;;1.77;;
31692;SDS011;37436;53.230;6.614;2023-07-31T13:17:45;4.32;;;1.85;;
31692;SDS011;37436;53.230;6.614;2023-07-31T13:20:12;6.22;;;2.17;;
31692;SDS011;37436;53.230;6.614;2023-07-31T13:22:46;7.30;;;1.85;;
31692;SDS011;37436;53.230;6.614;2023-07-31T13:25:12;14.48;;;2.22;;
31692;SDS011;37436;53.230;6.614;2023-07-31T13:27:39;5.18;;;1.90;;
31692;SDS011;37436;53.230;6.614;2023-07-31T13:30:05;3.28;;;1.40;;
31692;SDS011;37436;53.230;6.614;2023-07-31T13:32:31;6.70;;;2.30;;
31692;SDS011;37436;53.230;6.614;2023-07-31T13:34:58;5.75;;;2.30;;
31692;SDS011;37436;53.230;6.614;2023-07-31T13:37:26;5.95;;;1.38;;
31692;SDS011;37436;53.230;6.614;2023-07-31T13:39:52;6.22;;;1.90;;
31692;SDS011;37436;53.230;6.614;2023-07-31T13:42:23;6.68;;;2.35;;
31692;SDS011;37436;53.230;6.614;2023-07-31T13:44:49;6.70;;;2.08;;
31692;SDS011;37436;53.230;6.614;2023-07-31T13:47:15;9.30;;;3.70;;
31692;SDS011;37436;53.230;6.614;2023-07-31T13:49:41;4.32;;;2.10;;
31692;SDS011;37436;53.230;6.614;2023-07-31T13:52:18;3.97;;;1.85;;
31692;SDS011;37436;53.230;6.614;2023-07-31T13:54:46;10.85;;;3.67;;
31692;SDS011;37436;53.230;6.614;2023-07-31T13:57:13;11.23;;;2.30;;
31692;SDS011;37436;53.230;6.614;2023-07-31T13:59:43;11.15;;;2.67;;
31692;SDS011;37436;53.230;6.614;2023-07-31T14:02:09;6.78;;;2.00;;
31692;SDS011;37436;53.230;6.614;2023-07-31T14:04:35;9.70;;;2.92;;
31692;SDS011;37436;53.230;6.614;2023-07-31T14:07:01;12.00;;;2.40;;
31692;SDS011;37436;53.230;6.614;2023-07-31T14:09:32;6.88;;;3.20;;
31692;SDS011;37436;53.230;6.614;2023-07-31T14:12:05;6.22;;;2.70;;
31692;SDS011;37436;53.230;6.614;2023-07-31T14:14:31;11.63;;;3.13;;
31692;SDS011;37436;53.230;6.614;2023-07-31T14:17:00;5.90;;;3.20;;
31692;SDS011;37436;53.230;6.614;2023-07-31T14:19:27;8.93;;;2.50;;
31692;SDS011;37436;53.230;6.614;2023-07-31T14:21:54;9.73;;;2.63;;
31692;SDS011;37436;53.230;6.614;2023-07-31T14:24:20;6.53;;;2.60;;
31692;SDS011;37436;53.230;6.614;2023-07-31T14:26:46;3.13;;;1.58;;
31692;SDS011;37436;53.230;6.614;2023-07-31T14:29:12;5.20;;;2.33;;
31692;SDS011;37436;53.230;6.614;2023-07-31T14:31:38;6.85;;;2.70;;
31692;SDS011;37436;53.230;6.614;2023-07-31T14:34:04;6.03;;;2.58;;
31692;SDS011;37436;53.230;6.614;2023-07-31T14:36:30;5.95;;;2.83;;
31692;SDS011;37436;53.230;6.614;2023-07-31T14:38:57;7.93;;;2.47;;
31692;SDS011;37436;53.230;6.614;2023-07-31T14:41:23;5.10;;;1.95;;
31692;SDS011;37436;53.230;6.614;2023-07-31T14:43:49;6.82;;;2.75;;
31692;SDS011;37436;53.230;6.614;2023-07-31T14:46:18;12.90;;;3.17;;
31692;SDS011;37436;53.230;6.614;2023-07-31T14:48:50;9.13;;;2.50;;
31692;SDS011;37436;53.230;6.614;2023-07-31T14:51:28;12.10;;;4.30;;
31692;SDS011;37436;53.230;6.614;2023-07-31T14:54:02;10.90;;;3.00;;
31692;SDS011;37436;53.230;6.614;2023-07-31T14:56:28;9.30;;;3.15;;
31692;SDS011;37436;53.230;6.614;2023-07-31T14:58:54;9.57;;;2.22;;
31692;SDS011;37436;53.230;6.614;2023-07-31T15:01:23;9.38;;;2.72;;
31692;SDS011;37436;53.230;6.614;2023-07-31T15:03:53;8.57;;;2.60;;
31692;SDS011;37436;53.230;6.614;2023-07-31T15:06:21;7.18;;;3.28;;
31692;SDS011;37436;53.230;6.614;2023-07-31T15:08:48;9.38;;;3.05;;
31692;SDS011;37436;53.230;6.614;2023-07-31T15:11:14;10.63;;;2.92;;
31692;SDS011;37436;53.230;6.614;2023-07-31T15:13:44;7.35;;;2.95;;
31692;SDS011;37436;53.230;6.614;2023-07-31T15:16:10;7.60;;;3.00;;
31692;SDS011;37436;53.230;6.614;2023-07-31T15:18:36;13.57;;;3.20;;
31692;SDS011;37436;53.230;6.614;2023-07-31T15:21:11;9.65;;;2.95;;